HRR weather

Cantarell I Platform Helipad
Villahermosa, Tabasco, Mexico

Public forecast

Using degrees Celsius for public forecast. Weather courtesy of forecast.io.

METAR (pilot weather report)

Closest report is Carlos Rovirosa Pérez International Airport, 51.2 nm (94.8 km) SE. Retrieved 2019/06/25 17:44 UTC (0 seconds ago):

MMVA 251744Z 00000KT 7SM BKN210 32/23 A2990 RMK SLP122 52002 906 8/008 HZY

TAF (pilot weather forecast)

Forecast is more than 6 hours old.

Closest forecast is Carlos Rovirosa Pérez International Airport, 51.2 nm (94.8 km) SE. Retrieved 2019/06/25 06:13 UTC (11 hours ago):

TAF MMVA 250506Z 2506/2606 00000KT P6SM SKC FM251800 10012KT P6SM SCT015 SCT080 BKN250 FM260500 09005KT P6SM SKC